sensor_id;sensor_type;location;lat;lon;timestamp;P1;durP1;ratioP1;P2;durP2;ratioP2
27899;SDS011;15243;50.726;7.080;2022-10-16T00:01:29;2.75;;;1.88;;
27899;SDS011;15243;50.726;7.080;2022-10-16T00:03:57;6.47;;;3.58;;
27899;SDS011;15243;50.726;7.080;2022-10-16T00:06:26;2.88;;;1.98;;
27899;SDS011;15243;50.726;7.080;2022-10-16T00:08:55;5.07;;;2.13;;
27899;SDS011;15243;50.726;7.080;2022-10-16T00:11:25;10.07;;;3.28;;
27899;SDS011;15243;50.726;7.080;2022-10-16T00:13:58;5.03;;;1.90;;
27899;SDS011;15243;50.726;7.080;2022-10-16T00:18:54;3.70;;;2.03;;
27899;SDS011;15243;50.726;7.080;2022-10-16T00:21:22;2.47;;;1.70;;
27899;SDS011;15243;50.726;7.080;2022-10-16T00:23:51;3.25;;;1.60;;
27899;SDS011;15243;50.726;7.080;2022-10-16T00:26:19;2.90;;;1.77;;
27899;SDS011;15243;50.726;7.080;2022-10-16T00:28:47;1.95;;;1.23;;
27899;SDS011;15243;50.726;7.080;2022-10-16T00:31:15;2.05;;;1.40;;
27899;SDS011;15243;50.726;7.080;2022-10-16T00:33:43;3.67;;;1.67;;
27899;SDS011;15243;50.726;7.080;2022-10-16T00:36:14;1.70;;;1.40;;
27899;SDS011;15243;50.726;7.080;2022-10-16T00:38:43;2.08;;;1.40;;
27899;SDS011;15243;50.726;7.080;2022-10-16T00:41:12;1.80;;;1.40;;
27899;SDS011;15243;50.726;7.080;2022-10-16T00:43:42;6.13;;;1.70;;
27899;SDS011;15243;50.726;7.080;2022-10-16T00:46:24;2.67;;;1.50;;
27899;SDS011;15243;50.726;7.080;2022-10-16T00:49:13;3.33;;;1.67;;
27899;SDS011;15243;50.726;7.080;2022-10-16T00:54:18;2.83;;;1.55;;
27899;SDS011;15243;50.726;7.080;2022-10-16T00:56:51;3.17;;;1.60;;
27899;SDS011;15243;50.726;7.080;2022-10-16T00:59:24;5.50;;;1.80;;
27899;SDS011;15243;50.726;7.080;2022-10-16T01:01:54;5.32;;;1.70;;
27899;SDS011;15243;50.726;7.080;2022-10-16T01:04:22;3.00;;;2.08;;
27899;SDS011;15243;50.726;7.080;2022-10-16T01:12:17;3.15;;;1.35;;
27899;SDS011;15243;50.726;7.080;2022-10-16T01:14:55;3.78;;;1.42;;
27899;SDS011;15243;50.726;7.080;2022-10-16T01:26:11;1.42;;;1.33;;
27899;SDS011;15243;50.726;7.080;2022-10-16T01:28:10;2.15;;;1.55;;
27899;SDS011;15243;50.726;7.080;2022-10-16T01:30:39;4.57;;;1.92;;
27899;SDS011;15243;50.726;7.080;2022-10-16T01:33:18;5.38;;;1.33;;
27899;SDS011;15243;50.726;7.080;2022-10-16T01:35:48;3.33;;;1.40;;
27899;SDS011;15243;50.726;7.080;2022-10-16T01:40:58;2.20;;;1.25;;
27899;SDS011;15243;50.726;7.080;2022-10-16T01:43:29;4.18;;;1.70;;
27899;SDS011;15243;50.726;7.080;2022-10-16T01:46:01;7.10;;;2.33;;
27899;SDS011;15243;50.726;7.080;2022-10-16T01:48:28;5.22;;;1.55;;
27899;SDS011;15243;50.726;7.080;2022-10-16T01:50:59;3.50;;;1.83;;
27899;SDS011;15243;50.726;7.080;2022-10-16T01:53:31;3.50;;;1.55;;
27899;SDS011;15243;50.726;7.080;2022-10-16T01:55:59;3.40;;;1.92;;
27899;SDS011;15243;50.726;7.080;2022-10-16T01:58:27;7.15;;;2.10;;
27899;SDS011;15243;50.726;7.080;2022-10-16T02:01:01;9.90;;;1.95;;
27899;SDS011;15243;50.726;7.080;2022-10-16T02:03:30;4.25;;;2.00;;
27899;SDS011;15243;50.726;7.080;2022-10-16T02:06:00;2.88;;;1.80;;
27899;SDS011;15243;50.726;7.080;2022-10-16T02:08:27;3.40;;;1.75;;
27899;SDS011;15243;50.726;7.080;2022-10-16T02:10:56;4.68;;;1.52;;
27899;SDS011;15243;50.726;7.080;2022-10-16T02:13:37;6.75;;;1.42;;
27899;SDS011;15243;50.726;7.080;2022-10-16T02:16:11;3.05;;;1.30;;
27899;SDS011;15243;50.726;7.080;2022-10-16T02:18:40;2.90;;;1.30;;
27899;SDS011;15243;50.726;7.080;2022-10-16T02:29:10;5.30;;;1.40;;
27899;SDS011;15243;50.726;7.080;2022-10-16T02:31:41;1.58;;;0.95;;
27899;SDS011;15243;50.726;7.080;2022-10-16T02:34:13;3.88;;;0.90;;
27899;SDS011;15243;50.726;7.080;2022-10-16T02:36:41;3.67;;;1.15;;
27899;SDS011;15243;50.726;7.080;2022-10-16T02:39:10;2.13;;;0.77;;
27899;SDS011;15243;50.726;7.080;2022-10-16T02:41:38;1.00;;;0.90;;
27899;SDS011;15243;50.726;7.080;2022-10-16T02:44:05;2.70;;;0.80;;
27899;SDS011;15243;50.726;7.080;2022-10-16T02:46:31;2.30;;;1.00;;
27899;SDS011;15243;50.726;7.080;2022-10-16T02:48:58;1.80;;;0.80;;
27899;SDS011;15243;50.726;7.080;2022-10-16T02:51:25;3.42;;;1.02;;
27899;SDS011;15243;50.726;7.080;2022-10-16T02:53:52;2.63;;;1.10;;
27899;SDS011;15243;50.726;7.080;2022-10-16T02:56:19;2.22;;;0.82;;
27899;SDS011;15243;50.726;7.080;2022-10-16T02:58:45;1.05;;;0.90;;
27899;SDS011;15243;50.726;7.080;2022-10-16T03:01:12;4.45;;;0.90;;
27899;SDS011;15243;50.726;7.080;2022-10-16T03:03:42;1.38;;;0.80;;
27899;SDS011;15243;50.726;7.080;2022-10-16T03:06:09;2.47;;;0.80;;
27899;SDS011;15243;50.726;7.080;2022-10-16T03:08:36;1.30;;;0.85;;
27899;SDS011;15243;50.726;7.080;2022-10-16T03:11:03;9.65;;;1.17;;
27899;SDS011;15243;50.726;7.080;2022-10-16T03:13:30;2.10;;;0.85;;
27899;SDS011;15243;50.726;7.080;2022-10-16T03:15:56;2.03;;;1.10;;
27899;SDS011;15243;50.726;7.080;2022-10-16T03:18:23;4.65;;;0.90;;
27899;SDS011;15243;50.726;7.080;2022-10-16T03:20:50;1.65;;;0.70;;
27899;SDS011;15243;50.726;7.080;2022-10-16T03:23:17;5.20;;;1.05;;
27899;SDS011;15243;50.726;7.080;2022-10-16T03:25:44;6.45;;;1.00;;
27899;SDS011;15243;50.726;7.080;2022-10-16T03:28:13;1.17;;;0.63;;
27899;SDS011;15243;50.726;7.080;2022-10-16T03:30:40;2.80;;;0.90;;
27899;SDS011;15243;50.726;7.080;2022-10-16T03:33:07;1.80;;;0.70;;
27899;SDS011;15243;50.726;7.080;2022-10-16T03:35:33;4.30;;;0.80;;
27899;SDS011;15243;50.726;7.080;2022-10-16T03:38:01;1.67;;;0.85;;
27899;SDS011;15243;50.726;7.080;2022-10-16T03:40:28;2.80;;;0.90;;
27899;SDS011;15243;50.726;7.080;2022-10-16T03:42:55;1.63;;;0.70;;
27899;SDS011;15243;50.726;7.080;2022-10-16T03:45:23;0.98;;;0.60;;
27899;SDS011;15243;50.726;7.080;2022-10-16T03:47:50;1.52;;;0.63;;
27899;SDS011;15243;50.726;7.080;2022-10-16T03:50:17;0.65;;;0.60;;
27899;SDS011;15243;50.726;7.080;2022-10-16T03:52:44;2.15;;;0.60;;
27899;SDS011;15243;50.726;7.080;2022-10-16T03:55:11;1.70;;;0.70;;
27899;SDS011;15243;50.726;7.080;2022-10-16T03:57:37;1.23;;;0.50;;
27899;SDS011;15243;50.726;7.080;2022-10-16T04:00:04;3.90;;;0.80;;
27899;SDS011;15243;50.726;7.080;2022-10-16T04:02:32;3.00;;;0.90;;
27899;SDS011;15243;50.726;7.080;2022-10-16T04:04:59;0.90;;;0.60;;
27899;SDS011;15243;50.726;7.080;2022-10-16T04:07:25;4.18;;;0.82;;
27899;SDS011;15243;50.726;7.080;2022-10-16T04:09:53;4.70;;;0.65;;
27899;SDS011;15243;50.726;7.080;2022-10-16T04:12:19;3.63;;;0.88;;
27899;SDS011;15243;50.726;7.080;2022-10-16T04:14:46;5.07;;;0.77;;
27899;SDS011;15243;50.726;7.080;2022-10-16T04:17:13;1.73;;;0.70;;
27899;SDS011;15243;50.726;7.080;2022-10-16T04:19:40;1.90;;;0.70;;
27899;SDS011;15243;50.726;7.080;2022-10-16T04:22:06;1.48;;;0.65;;
27899;SDS011;15243;50.726;7.080;2022-10-16T04:24:33;0.73;;;0.60;;
27899;SDS011;15243;50.726;7.080;2022-10-16T04:27:00;1.98;;;0.70;;
27899;SDS011;15243;50.726;7.080;2022-10-16T04:29:27;6.95;;;1.00;;
27899;SDS011;15243;50.726;7.080;2022-10-16T04:31:54;3.15;;;0.80;;
27899;SDS011;15243;50.726;7.080;2022-10-16T04:34:21;3.17;;;0.90;;
27899;SDS011;15243;50.726;7.080;2022-10-16T04:36:48;2.50;;;0.80;;
27899;SDS011;15243;50.726;7.080;2022-10-16T04:39:17;0.70;;;0.70;;
27899;SDS011;15243;50.726;7.080;2022-10-16T04:41:44;1.30;;;0.70;;
27899;SDS011;15243;50.726;7.080;2022-10-16T04:44:11;0.90;;;0.60;;
27899;SDS011;15243;50.726;7.080;2022-10-16T04:46:38;1.20;;;0.68;;
27899;SDS011;15243;50.726;7.080;2022-10-16T04:49:05;2.47;;;0.77;;
27899;SDS011;15243;50.726;7.080;2022-10-16T04:51:32;3.72;;;0.70;;
27899;SDS011;15243;50.726;7.080;2022-10-16T04:53:59;1.50;;;0.98;;
27899;SDS011;15243;50.726;7.080;2022-10-16T04:56:25;1.95;;;1.48;;
27899;SDS011;15243;50.726;7.080;2022-10-16T04:58:52;2.83;;;1.20;;
27899;SDS011;15243;50.726;7.080;2022-10-16T05:01:19;1.55;;;1.17;;
27899;SDS011;15243;50.726;7.080;2022-10-16T05:03:46;3.28;;;1.13;;
27899;SDS011;15243;50.726;7.080;2022-10-16T05:06:12;3.20;;;1.02;;
27899;SDS011;15243;50.726;7.080;2022-10-16T05:08:39;1.40;;;1.10;;
27899;SDS011;15243;50.726;7.080;2022-10-16T05:11:06;3.35;;;1.30;;
27899;SDS011;15243;50.726;7.080;2022-10-16T05:13:33;4.05;;;1.35;;
27899;SDS011;15243;50.726;7.080;2022-10-16T05:16:00;3.00;;;1.75;;
27899;SDS011;15243;50.726;7.080;2022-10-16T05:18:27;4.45;;;1.30;;
27899;SDS011;15243;50.726;7.080;2022-10-16T05:20:54;2.67;;;1.23;;
27899;SDS011;15243;50.726;7.080;2022-10-16T05:23:21;7.32;;;1.20;;
27899;SDS011;15243;50.726;7.080;2022-10-16T05:25:54;1.45;;;1.13;;
27899;SDS011;15243;50.726;7.080;2022-10-16T05:28:21;3.80;;;1.20;;
27899;SDS011;15243;50.726;7.080;2022-10-16T05:30:48;2.92;;;1.20;;
27899;SDS011;15243;50.726;7.080;2022-10-16T05:33:15;9.80;;;1.70;;
27899;SDS011;15243;50.726;7.080;2022-10-16T05:35:42;1.73;;;1.23;;
27899;SDS011;15243;50.726;7.080;2022-10-16T05:38:10;10.05;;;1.48;;
27899;SDS011;15243;50.726;7.080;2022-10-16T05:40:36;3.38;;;1.40;;
27899;SDS011;15243;50.726;7.080;2022-10-16T05:43:03;6.47;;;1.30;;
27899;SDS011;15243;50.726;7.080;2022-10-16T05:45:30;2.42;;;1.25;;
27899;SDS011;15243;50.726;7.080;2022-10-16T05:47:57;2.15;;;1.38;;
27899;SDS011;15243;50.726;7.080;2022-10-16T05:50:24;1.23;;;1.13;;
27899;SDS011;15243;50.726;7.080;2022-10-16T05:52:51;2.97;;;1.17;;
27899;SDS011;15243;50.726;7.080;2022-10-16T05:55:17;1.58;;;1.23;;
27899;SDS011;15243;50.726;7.080;2022-10-16T05:57:44;4.13;;;1.30;;
27899;SDS011;15243;50.726;7.080;2022-10-16T06:00:11;7.03;;;1.50;;
27899;SDS011;15243;50.726;7.080;2022-10-16T06:02:38;3.80;;;1.45;;
27899;SDS011;15243;50.726;7.080;2022-10-16T06:05:05;1.73;;;1.50;;
27899;SDS011;15243;50.726;7.080;2022-10-16T06:07:35;4.80;;;1.50;;
27899;SDS011;15243;50.726;7.080;2022-10-16T06:10:03;2.65;;;1.38;;
27899;SDS011;15243;50.726;7.080;2022-10-16T06:12:30;2.05;;;1.55;;
27899;SDS011;15243;50.726;7.080;2022-10-16T06:14:57;2.38;;;1.27;;
27899;SDS011;15243;50.726;7.080;2022-10-16T06:17:24;2.38;;;1.58;;
27899;SDS011;15243;50.726;7.080;2022-10-16T06:19:51;3.50;;;1.60;;
27899;SDS011;15243;50.726;7.080;2022-10-16T06:22:18;3.35;;;1.60;;
27899;SDS011;15243;50.726;7.080;2022-10-16T06:24:45;2.88;;;1.25;;
27899;SDS011;15243;50.726;7.080;2022-10-16T06:27:12;4.70;;;1.75;;
27899;SDS011;15243;50.726;7.080;2022-10-16T06:29:39;2.25;;;1.80;;
27899;SDS011;15243;50.726;7.080;2022-10-16T06:32:06;5.85;;;1.65;;
27899;SDS011;15243;50.726;7.080;2022-10-16T06:34:33;2.80;;;1.50;;
27899;SDS011;15243;50.726;7.080;2022-10-16T06:37:00;2.85;;;1.60;;
27899;SDS011;15243;50.726;7.080;2022-10-16T06:39:27;3.22;;;1.77;;
27899;SDS011;15243;50.726;7.080;2022-10-16T06:41:54;4.57;;;1.92;;
27899;SDS011;15243;50.726;7.080;2022-10-16T06:44:21;4.20;;;1.95;;
27899;SDS011;15243;50.726;7.080;2022-10-16T06:46:47;4.95;;;2.10;;
27899;SDS011;15243;50.726;7.080;2022-10-16T06:49:14;4.00;;;2.20;;
27899;SDS011;15243;50.726;7.080;2022-10-16T06:51:47;5.15;;;2.22;;
27899;SDS011;15243;50.726;7.080;2022-10-16T06:54:14;4.47;;;2.20;;
27899;SDS011;15243;50.726;7.080;2022-10-16T06:56:41;3.65;;;1.95;;
27899;SDS011;15243;50.726;7.080;2022-10-16T06:59:08;5.25;;;2.20;;
27899;SDS011;15243;50.726;7.080;2022-10-16T07:01:35;3.78;;;1.80;;
27899;SDS011;15243;50.726;7.080;2022-10-16T07:04:02;4.95;;;2.17;;
27899;SDS011;15243;50.726;7.080;2022-10-16T07:06:30;2.60;;;1.88;;
27899;SDS011;15243;50.726;7.080;2022-10-16T07:09:00;6.45;;;2.38;;
27899;SDS011;15243;50.726;7.080;2022-10-16T07:11:29;3.42;;;1.83;;
27899;SDS011;15243;50.726;7.080;2022-10-16T07:13:56;6.68;;;2.25;;
27899;SDS011;15243;50.726;7.080;2022-10-16T07:16:24;4.50;;;1.52;;
27899;SDS011;15243;50.726;7.080;2022-10-16T07:19:00;4.20;;;1.80;;
27899;SDS011;15243;50.726;7.080;2022-10-16T07:21:28;5.53;;;1.73;;
27899;SDS011;15243;50.726;7.080;2022-10-16T07:23:58;6.57;;;2.00;;
27899;SDS011;15243;50.726;7.080;2022-10-16T07:26:28;1.83;;;1.58;;
27899;SDS011;15243;50.726;7.080;2022-10-16T07:28:57;2.42;;;1.73;;
27899;SDS011;15243;50.726;7.080;2022-10-16T07:31:24;6.70;;;1.90;;
27899;SDS011;15243;50.726;7.080;2022-10-16T07:33:51;4.38;;;1.80;;
27899;SDS011;15243;50.726;7.080;2022-10-16T07:36:19;2.65;;;1.33;;
27899;SDS011;15243;50.726;7.080;2022-10-16T07:38:46;6.78;;;2.00;;
27899;SDS011;15243;50.726;7.080;2022-10-16T07:41:15;2.97;;;1.58;;
27899;SDS011;15243;50.726;7.080;2022-10-16T07:43:46;4.72;;;1.70;;
27899;SDS011;15243;50.726;7.080;2022-10-16T07:46:14;3.85;;;1.90;;
27899;SDS011;15243;50.726;7.080;2022-10-16T07:48:42;3.25;;;1.80;;
27899;SDS011;15243;50.726;7.080;2022-10-16T07:51:20;4.93;;;1.90;;
27899;SDS011;15243;50.726;7.080;2022-10-16T07:53:48;3.53;;;1.63;;
27899;SDS011;15243;50.726;7.080;2022-10-16T07:56:17;2.65;;;1.60;;
27899;SDS011;15243;50.726;7.080;2022-10-16T07:58:45;5.70;;;1.88;;
27899;SDS011;15243;50.726;7.080;2022-10-16T08:01:13;1.40;;;1.25;;
27899;SDS011;15243;50.726;7.080;2022-10-16T08:03:42;2.38;;;1.30;;
27899;SDS011;15243;50.726;7.080;2022-10-16T08:06:12;1.98;;;1.10;;
27899;SDS011;15243;50.726;7.080;2022-10-16T08:08:39;1.33;;;1.20;;
27899;SDS011;15243;50.726;7.080;2022-10-16T08:11:06;2.42;;;1.00;;
27899;SDS011;15243;50.726;7.080;2022-10-16T08:13:34;5.07;;;1.02;;
27899;SDS011;15243;50.726;7.080;2022-10-16T08:16:01;2.38;;;1.05;;
27899;SDS011;15243;50.726;7.080;2022-10-16T08:18:34;9.82;;;1.30;;
27899;SDS011;15243;50.726;7.080;2022-10-16T08:21:02;2.70;;;0.93;;
27899;SDS011;15243;50.726;7.080;2022-10-16T08:23:29;2.45;;;0.90;;
27899;SDS011;15243;50.726;7.080;2022-10-16T08:26:01;3.55;;;1.10;;
27899;SDS011;15243;50.726;7.080;2022-10-16T08:28:31;0.80;;;0.80;;
27899;SDS011;15243;50.726;7.080;2022-10-16T08:31:04;1.40;;;0.82;;
27899;SDS011;15243;50.726;7.080;2022-10-16T08:33:33;4.80;;;0.85;;
27899;SDS011;15243;50.726;7.080;2022-10-16T08:36:01;1.92;;;0.90;;
27899;SDS011;15243;50.726;7.080;2022-10-16T08:38:29;2.25;;;0.60;;
27899;SDS011;15243;50.726;7.080;2022-10-16T08:49:29;1.47;;;0.70;;
27899;SDS011;15243;50.726;7.080;2022-10-16T08:51:57;1.85;;;0.60;;
27899;SDS011;15243;50.726;7.080;2022-10-16T08:54:27;1.25;;;0.70;;
27899;SDS011;15243;50.726;7.080;2022-10-16T08:57:08;2.08;;;0.93;;
27899;SDS011;15243;50.726;7.080;2022-10-16T08:59:38;1.88;;;0.88;;
27899;SDS011;15243;50.726;7.080;2022-10-16T09:10:38;3.72;;;0.80;;
27899;SDS011;15243;50.726;7.080;2022-10-16T09:13:34;3.28;;;0.88;;
27899;SDS011;15243;50.726;7.080;2022-10-16T09:16:35;3.67;;;0.68;;
27899;SDS011;15243;50.726;7.080;2022-10-16T09:19:22;3.20;;;0.80;;
27899;SDS011;15243;50.726;7.080;2022-10-16T09:21:58;2.80;;;0.65;;
27899;SDS011;15243;50.726;7.080;2022-10-16T09:24:29;0.60;;;0.55;;
27899;SDS011;15243;50.726;7.080;2022-10-16T09:26:56;2.72;;;0.73;;
27899;SDS011;15243;50.726;7.080;2022-10-16T09:29:23;2.70;;;0.60;;
27899;SDS011;15243;50.726;7.080;2022-10-16T09:31:52;5.60;;;1.33;;
27899;SDS011;15243;50.726;7.080;2022-10-16T09:34:30;1.50;;;0.70;;
27899;SDS011;15243;50.726;7.080;2022-10-16T09:37:01;2.88;;;0.93;;
27899;SDS011;15243;50.726;7.080;2022-10-16T09:39:41;1.80;;;0.50;;
27899;SDS011;15243;50.726;7.080;2022-10-16T09:42:21;1.02;;;0.47;;
27899;SDS011;15243;50.726;7.080;2022-10-16T09:45:00;2.38;;;0.88;;
27899;SDS011;15243;50.726;7.080;2022-10-16T09:47:27;1.77;;;0.60;;
27899;SDS011;15243;50.726;7.080;2022-10-16T09:50:13;2.13;;;0.55;;
27899;SDS011;15243;50.726;7.080;2022-10-16T09:52:47;2.30;;;0.40;;
27899;SDS011;15243;50.726;7.080;2022-10-16T09:55:15;0.40;;;0.40;;
27899;SDS011;15243;50.726;7.080;2022-10-16T09:57:50;0.73;;;0.40;;
27899;SDS011;15243;50.726;7.080;2022-10-16T10:00:18;0.52;;;0.50;;
27899;SDS011;15243;50.726;7.080;2022-10-16T10:02:45;2.05;;;0.40;;
27899;SDS011;15243;50.726;7.080;2022-10-16T10:05:23;1.27;;;0.40;;
27899;SDS011;15243;50.726;7.080;2022-10-16T10:07:58;2.60;;;0.50;;
27899;SDS011;15243;50.726;7.080;2022-10-16T10:10:33;1.27;;;0.50;;
27899;SDS011;15243;50.726;7.080;2022-10-16T10:13:03;1.20;;;0.40;;
27899;SDS011;15243;50.726;7.080;2022-10-16T10:15:33;0.98;;;0.20;;
27899;SDS011;15243;50.726;7.080;2022-10-16T10:18:02;3.10;;;0.50;;
27899;SDS011;15243;50.726;7.080;2022-10-16T10:20:43;5.30;;;0.50;;
27899;SDS011;15243;50.726;7.080;2022-10-16T10:23:23;1.20;;;0.40;;
27899;SDS011;15243;50.726;7.080;2022-10-16T10:31:13;0.98;;;0.40;;
27899;SDS011;15243;50.726;7.080;2022-10-16T10:39:22;3.47;;;0.40;;
27899;SDS011;15243;50.726;7.080;2022-10-16T10:42:10;2.40;;;0.50;;
27899;SDS011;15243;50.726;7.080;2022-10-16T10:50:45;1.20;;;0.40;;
27899;SDS011;15243;50.726;7.080;2022-10-16T10:58:42;10.45;;;0.70;;
27899;SDS011;15243;50.726;7.080;2022-10-16T11:01:13;0.50;;;0.30;;
27899;SDS011;15243;50.726;7.080;2022-10-16T11:06:33;0.80;;;0.43;;
27899;SDS011;15243;50.726;7.080;2022-10-16T11:09:23;0.50;;;0.30;;
27899;SDS011;15243;50.726;7.080;2022-10-16T11:14:36;0.50;;;0.30;;
27899;SDS011;15243;50.726;7.080;2022-10-16T11:17:34;2.78;;;0.40;;
27899;SDS011;15243;50.726;7.080;2022-10-16T11:20:23;2.20;;;0.30;;
27899;SDS011;15243;50.726;7.080;2022-10-16T11:25:32;0.82;;;0.38;;
27899;SDS011;15243;50.726;7.080;2022-10-16T11:28:13;0.65;;;0.30;;
27899;SDS011;15243;50.726;7.080;2022-10-16T11:30:44;3.83;;;0.75;;
27899;SDS011;15243;50.726;7.080;2022-10-16T11:36:16;1.80;;;0.32;;
27899;SDS011;15243;50.726;7.080;2022-10-16T11:41:45;0.45;;;0.30;;
27899;SDS011;15243;50.726;7.080;2022-10-16T11:47:34;0.35;;;0.30;;
27899;SDS011;15243;50.726;7.080;2022-10-16T11:53:32;0.40;;;0.40;;
27899;SDS011;15243;50.726;7.080;2022-10-16T11:56:17;0.93;;;0.30;;
27899;SDS011;15243;50.726;7.080;2022-10-16T12:01:52;0.50;;;0.40;;
27899;SDS011;15243;50.726;7.080;2022-10-16T12:04:31;6.72;;;0.55;;
27899;SDS011;15243;50.726;7.080;2022-10-16T12:07:34;30.55;;;1.25;;
27899;SDS011;15243;50.726;7.080;2022-10-16T12:10:23;0.98;;;0.20;;
27899;SDS011;15243;50.726;7.080;2022-10-16T12:12:53;1.27;;;0.30;;
27899;SDS011;15243;50.726;7.080;2022-10-16T12:15:22;2.03;;;0.80;;
27899;SDS011;15243;50.726;7.080;2022-10-16T12:18:20;2.25;;;0.57;;
27899;SDS011;15243;50.726;7.080;2022-10-16T12:20:58;1.02;;;0.50;;
27899;SDS011;15243;50.726;7.080;2022-10-16T12:26:28;1.10;;;0.33;;
27899;SDS011;15243;50.726;7.080;2022-10-16T12:29:22;2.72;;;0.82;;
27899;SDS011;15243;50.726;7.080;2022-10-16T12:31:58;0.57;;;0.30;;
27899;SDS011;15243;50.726;7.080;2022-10-16T12:39:56;0.57;;;0.32;;
27899;SDS011;15243;50.726;7.080;2022-10-16T12:44:55;2.10;;;0.30;;
27899;SDS011;15243;50.726;7.080;2022-10-16T12:49:58;2.50;;;0.55;;
27899;SDS011;15243;50.726;7.080;2022-10-16T12:52:36;2.75;;;0.45;;
27899;SDS011;15243;50.726;7.080;2022-10-16T12:55:05;4.88;;;0.40;;
27899;SDS011;15243;50.726;7.080;2022-10-16T13:00:44;0.95;;;0.30;;
27899;SDS011;15243;50.726;7.080;2022-10-16T13:11:23;0.88;;;0.40;;
27899;SDS011;15243;50.726;7.080;2022-10-16T13:16:50;0.60;;;0.20;;
27899;SDS011;15243;50.726;7.080;2022-10-16T13:19:29;1.48;;;0.28;;
27899;SDS011;15243;50.726;7.080;2022-10-16T13:22:11;1.52;;;0.30;;
27899;SDS011;15243;50.726;7.080;2022-10-16T13:33:07;1.65;;;0.30;;
27899;SDS011;15243;50.726;7.080;2022-10-16T13:35:46;1.83;;;0.40;;
27899;SDS011;15243;50.726;7.080;2022-10-16T13:38:16;0.50;;;0.40;;
27899;SDS011;15243;50.726;7.080;2022-10-16T13:40:53;2.20;;;0.50;;
27899;SDS011;15243;50.726;7.080;2022-10-16T13:46:18;1.60;;;0.30;;
27899;SDS011;15243;50.726;7.080;2022-10-16T13:48:56;2.65;;;0.40;;
27899;SDS011;15243;50.726;7.080;2022-10-16T13:51:38;1.77;;;0.40;;
27899;SDS011;15243;50.726;7.080;2022-10-16T13:54:05;0.75;;;0.30;;
27899;SDS011;15243;50.726;7.080;2022-10-16T13:56:34;1.13;;;0.20;;
27899;SDS011;15243;50.726;7.080;2022-10-16T13:59:02;3.03;;;0.20;;
27899;SDS011;15243;50.726;7.080;2022-10-16T14:01:42;0.75;;;0.30;;
27899;SDS011;15243;50.726;7.080;2022-10-16T14:04:11;1.30;;;0.30;;
27899;SDS011;15243;50.726;7.080;2022-10-16T14:06:41;0.80;;;0.30;;
27899;SDS011;15243;50.726;7.080;2022-10-16T14:09:20;2.38;;;0.43;;
27899;SDS011;15243;50.726;7.080;2022-10-16T14:11:51;0.32;;;0.30;;
27899;SDS011;15243;50.726;7.080;2022-10-16T14:14:34;0.30;;;0.30;;
27899;SDS011;15243;50.726;7.080;2022-10-16T14:19:46;1.77;;;0.30;;
27899;SDS011;15243;50.726;7.080;2022-10-16T14:22:33;0.73;;;0.30;;
27899;SDS011;15243;50.726;7.080;2022-10-16T14:25:36;0.75;;;0.32;;
27899;SDS011;15243;50.726;7.080;2022-10-16T14:27:58;0.40;;;0.25;;
27899;SDS011;15243;50.726;7.080;2022-10-16T14:30:28;0.38;;;0.20;;
27899;SDS011;15243;50.726;7.080;2022-10-16T14:32:59;0.20;;;0.20;;
27899;SDS011;15243;50.726;7.080;2022-10-16T14:35:33;0.52;;;0.43;;
27899;SDS011;15243;50.726;7.080;2022-10-16T14:38:02;1.52;;;0.30;;
27899;SDS011;15243;50.726;7.080;2022-10-16T14:40:35;4.70;;;0.50;;
27899;SDS011;15243;50.726;7.080;2022-10-16T14:43:04;2.92;;;0.30;;
27899;SDS011;15243;50.726;7.080;2022-10-16T14:45:32;0.20;;;0.20;;
27899;SDS011;15243;50.726;7.080;2022-10-16T14:48:02;1.60;;;0.45;;
27899;SDS011;15243;50.726;7.080;2022-10-16T14:50:32;0.32;;;0.30;;
27899;SDS011;15243;50.726;7.080;2022-10-16T14:52:59;0.75;;;0.50;;
27899;SDS011;15243;50.726;7.080;2022-10-16T14:55:26;0.88;;;0.40;;
27899;SDS011;15243;50.726;7.080;2022-10-16T14:57:53;1.83;;;0.47;;
27899;SDS011;15243;50.726;7.080;2022-10-16T15:00:25;3.53;;;0.60;;
27899;SDS011;15243;50.726;7.080;2022-10-16T15:02:52;4.25;;;0.63;;
27899;SDS011;15243;50.726;7.080;2022-10-16T15:05:20;4.22;;;0.63;;
27899;SDS011;15243;50.726;7.080;2022-10-16T15:07:50;6.25;;;0.50;;
27899;SDS011;15243;50.726;7.080;2022-10-16T15:10:19;0.50;;;0.50;;
27899;SDS011;15243;50.726;7.080;2022-10-16T15:12:52;1.60;;;0.50;;
27899;SDS011;15243;50.726;7.080;2022-10-16T15:15:24;4.85;;;0.70;;
27899;SDS011;15243;50.726;7.080;2022-10-16T15:18:06;2.92;;;0.30;;
27899;SDS011;15243;50.726;7.080;2022-10-16T15:20:34;1.55;;;0.40;;
27899;SDS011;15243;50.726;7.080;2022-10-16T15:23:04;1.15;;;0.70;;
27899;SDS011;15243;50.726;7.080;2022-10-16T15:25:37;1.58;;;0.90;;
27899;SDS011;15243;50.726;7.080;2022-10-16T15:28:23;0.90;;;0.60;;
27899;SDS011;15243;50.726;7.080;2022-10-16T15:30:53;1.45;;;0.68;;
27899;SDS011;15243;50.726;7.080;2022-10-16T15:33:22;2.70;;;1.20;;
27899;SDS011;15243;50.726;7.080;2022-10-16T15:35:53;1.52;;;0.60;;
27899;SDS011;15243;50.726;7.080;2022-10-16T15:38:21;3.38;;;1.40;;
27899;SDS011;15243;50.726;7.080;2022-10-16T15:40:48;1.13;;;0.80;;
27899;SDS011;15243;50.726;7.080;2022-10-16T15:43:16;2.22;;;0.82;;
27899;SDS011;15243;50.726;7.080;2022-10-16T15:45:46;1.85;;;0.60;;
27899;SDS011;15243;50.726;7.080;2022-10-16T15:48:29;1.73;;;1.15;;
27899;SDS011;15243;50.726;7.080;2022-10-16T15:50:57;5.68;;;1.33;;
27899;SDS011;15243;50.726;7.080;2022-10-16T15:53:25;2.47;;;1.30;;
27899;SDS011;15243;50.726;7.080;2022-10-16T15:55:52;2.92;;;0.98;;
27899;SDS011;15243;50.726;7.080;2022-10-16T15:58:19;1.70;;;0.82;;
27899;SDS011;15243;50.726;7.080;2022-10-16T16:00:53;1.25;;;0.77;;
27899;SDS011;15243;50.726;7.080;2022-10-16T16:03:23;4.72;;;1.20;;
27899;SDS011;15243;50.726;7.080;2022-10-16T16:05:50;1.65;;;0.70;;
27899;SDS011;15243;50.726;7.080;2022-10-16T16:08:17;1.08;;;0.60;;
27899;SDS011;15243;50.726;7.080;2022-10-16T16:10:44;1.77;;;0.70;;
27899;SDS011;15243;50.726;7.080;2022-10-16T16:13:11;2.17;;;0.65;;
27899;SDS011;15243;50.726;7.080;2022-10-16T16:15:38;2.70;;;1.15;;
27899;SDS011;15243;50.726;7.080;2022-10-16T16:18:06;3.63;;;1.60;;
27899;SDS011;15243;50.726;7.080;2022-10-16T16:20:35;4.93;;;1.77;;
27899;SDS011;15243;50.726;7.080;2022-10-16T16:23:02;2.75;;;1.10;;
27899;SDS011;15243;50.726;7.080;2022-10-16T16:25:29;2.28;;;1.02;;
27899;SDS011;15243;50.726;7.080;2022-10-16T16:27:56;3.33;;;1.50;;
27899;SDS011;15243;50.726;7.080;2022-10-16T16:30:23;5.95;;;1.60;;
27899;SDS011;15243;50.726;7.080;2022-10-16T16:32:53;3.33;;;1.20;;
27899;SDS011;15243;50.726;7.080;2022-10-16T16:35:20;3.60;;;1.38;;
27899;SDS011;15243;50.726;7.080;2022-10-16T16:37:47;2.10;;;1.17;;
27899;SDS011;15243;50.726;7.080;2022-10-16T16:40:14;4.53;;;1.17;;
27899;SDS011;15243;50.726;7.080;2022-10-16T16:42:41;1.58;;;1.23;;
27899;SDS011;15243;50.726;7.080;2022-10-16T16:45:08;2.33;;;1.40;;
27899;SDS011;15243;50.726;7.080;2022-10-16T16:47:35;5.95;;;1.60;;
27899;SDS011;15243;50.726;7.080;2022-10-16T16:50:02;3.88;;;1.17;;
27899;SDS011;15243;50.726;7.080;2022-10-16T16:52:31;2.60;;;1.52;;
27899;SDS011;15243;50.726;7.080;2022-10-16T16:54:58;5.05;;;1.13;;
27899;SDS011;15243;50.726;7.080;2022-10-16T16:57:24;3.10;;;1.27;;
27899;SDS011;15243;50.726;7.080;2022-10-16T16:59:52;4.80;;;1.20;;
27899;SDS011;15243;50.726;7.080;2022-10-16T17:02:18;3.80;;;1.40;;
27899;SDS011;15243;50.726;7.080;2022-10-16T17:04:45;1.48;;;1.25;;
27899;SDS011;15243;50.726;7.080;2022-10-16T17:07:12;5.00;;;1.35;;
27899;SDS011;15243;50.726;7.080;2022-10-16T17:09:39;2.80;;;0.90;;
27899;SDS011;15243;50.726;7.080;2022-10-16T17:12:06;3.38;;;1.10;;
27899;SDS011;15243;50.726;7.080;2022-10-16T17:14:33;1.77;;;1.10;;
27899;SDS011;15243;50.726;7.080;2022-10-16T17:16:59;2.03;;;0.85;;
27899;SDS011;15243;50.726;7.080;2022-10-16T17:19:26;2.22;;;1.05;;
27899;SDS011;15243;50.726;7.080;2022-10-16T17:21:53;3.85;;;1.00;;